Time;durP1;ratioP1;P1;durP2;ratioP2;P2;SDS_P1;SDS_P2;PMS_P1;PMS_P2;Temp;Humidity;BMP_temperature;BMP_pressure;BME280_temperature;BME280_humidity;BME280_pressure;Samples;Min_cycle;Max_cycle;Signal;HPM_P1;HPM_P2
2024/02/19 00:00:13;;;;;;;7.05;1.90;;;;;;;;;;610959;23;1129;-73
2024/02/19 00:00:29;;;;;;;6.18;1.90;;;;;;;;;;607882;23;1148;-73
2024/02/19 00:00:47;;;;;;;6.15;1.77;;;;;;;;;;603535;23;999;-73
2024/02/19 00:01:04;;;;;;;5.88;1.67;;;;;;;;;;607607;23;1269;-73
2024/02/19 00:01:20;;;;;;;6.68;2.00;;;;;;;;;;604794;23;1260;-73
2024/02/19 00:01:37;;;;;;;7.30;2.08;;;;;;;;;;604627;23;1016;-73
2024/02/19 00:01:54;;;;;;;9.07;2.30;;;;;;;;;;600275;23;839;-73
2024/02/19 00:02:10;;;;;;;8.13;2.15;;;;;;;;;;604202;23;1265;-73
2024/02/19 00:02:25;;;;;;;7.28;1.92;;;;;;;;;;609060;23;1337;-73
2024/02/19 00:02:41;;;;;;;7.97;2.10;;;;;;;;;;609070;23;1146;-73
2024/02/19 00:02:59;;;;;;;7.30;1.80;;;;;;;;;;606571;23;867;-73
2024/02/19 00:03:14;;;;;;;6.43;1.80;;;;;;;;;;607879;23;1256;-74
2024/02/19 00:03:30;;;;;;;5.80;1.70;;;;;;;;;;614115;23;942;-73
2024/02/19 00:03:46;;;;;;;5.57;1.50;;;;;;;;;;611481;23;1197;-73
2024/02/19 00:04:04;;;;;;;4.68;1.35;;;;;;;;;;606840;23;1290;-73
2024/02/19 00:04:19;;;;;;;5.05;1.45;;;;;;;;;;604513;23;1316;-74
2024/02/19 00:04:35;;;;;;;5.80;1.80;;;;;;;;;;607471;23;1335;-74
2024/02/19 00:04:51;;;;;;;5.68;1.80;;;;;;;;;;605183;23;1475;-73
2024/02/19 00:05:08;;;;;;;5.57;1.63;;;;;;;;;;602170;23;1162;-73
2024/02/19 00:05:23;;;;;;;5.30;1.60;;;;;;;;;;604376;23;1337;-73
2024/02/19 00:05:41;;;;;;;4.85;1.63;;;;;;;;;;606196;23;1261;-73
2024/02/19 00:05:56;;;;;;;5.90;1.70;;;;;;;;;;607514;23;792;-73
2024/02/19 00:06:12;;;;;;;6.13;1.73;;;;;;;;;;606164;23;1190;-74
2024/02/19 00:06:28;;;;;;;5.63;1.75;;;;;;;;;;608820;23;820;-73
2024/02/19 00:06:43;;;;;;;6.17;1.93;;;;;;;;;;604645;23;1243;-73
2024/02/19 00:06:59;;;;;;;8.57;1.98;;;;;;;;;;607456;23;1322;-73
2024/02/19 00:07:18;;;;;;;7.72;1.80;;;;;;;;;;610014;23;982;-73
2024/02/19 00:07:33;;;;;;;6.15;1.63;;;;;;;;;;607834;23;1319;-73
2024/02/19 00:07:49;;;;;;;6.78;1.77;;;;;;;;;;610122;23;1251;-73
2024/02/19 00:08:05;;;;;;;8.38;1.90;;;;;;;;;;611046;23;1214;-73
2024/02/19 00:08:21;;;;;;;7.78;1.63;;;;;;;;;;610913;23;1314;-73
2024/02/19 00:08:36;;;;;;;6.35;1.60;;;;;;;;;;605822;23;1235;-73
2024/02/19 00:08:52;;;;;;;5.77;1.70;;;;;;;;;;606942;23;1114;-74
2024/02/19 00:09:08;;;;;;;5.90;1.50;;;;;;;;;;605237;23;1316;-73
2024/02/19 00:09:23;;;;;;;7.18;1.70;;;;;;;;;;605074;23;765;-73
2024/02/19 00:09:39;;;;;;;6.40;1.67;;;;;;;;;;603825;23;1212;-73
2024/02/19 00:09:55;;;;;;;6.72;1.60;;;;;;;;;;605845;23;1122;-73
2024/02/19 00:10:11;;;;;;;8.70;1.88;;;;;;;;;;609880;23;1253;-73
2024/02/19 00:10:26;;;;;;;7.93;1.95;;;;;;;;;;606171;23;1317;-73
2024/02/19 00:10:42;;;;;;;7.60;1.83;;;;;;;;;;608044;23;1302;-73
2024/02/19 00:10:58;;;;;;;7.25;1.92;;;;;;;;;;606683;23;1204;-73
2024/02/19 00:11:14;;;;;;;6.95;2.00;;;;;;;;;;607886;23;1233;-73
2024/02/19 00:11:30;;;;;;;6.72;1.83;;;;;;;;;;605164;23;1246;-73
2024/02/19 00:11:48;;;;;;;6.93;1.80;;;;;;;;;;601757;23;967;-73
2024/02/19 00:12:04;;;;;;;7.40;1.92;;;;;;;;;;604133;23;1225;-74
2024/02/19 00:12:20;;;;;;;7.05;1.73;;;;;;;;;;598148;23;1331;-73
2024/02/19 00:12:36;;;;;;;6.43;1.70;;;;;;;;;;603056;23;1147;-73
2024/02/19 00:12:52;;;;;;;6.15;1.90;;;;;;;;;;605293;23;1537;-73
2024/02/19 00:13:08;;;;;;;6.70;1.90;;;;;;;;;;603680;23;1272;-74
2024/02/19 00:13:23;;;;;;;7.30;1.85;;;;;;;;;;605491;23;1907;-74
2024/02/19 00:13:39;;;;;;;7.47;1.70;;;;;;;;;;607994;23;784;-73
2024/02/19 00:13:55;;;;;;;7.35;1.52;;;;;;;;;;605989;23;1184;-73
2024/02/19 00:14:11;;;;;;;7.78;1.55;;;;;;;;;;607950;23;1070;-73
2024/02/19 00:14:26;;;;;;;7.32;1.55;;;;;;;;;;609931;23;1189;-74
2024/02/19 00:14:42;;;;;;;5.53;1.37;;;;;;;;;;610153;23;867;-74
2024/02/19 00:14:58;;;;;;;4.65;1.40;;;;;;;;;;611210;23;1025;-73
2024/02/19 00:15:14;;;;;;;5.00;1.50;;;;;;;;;;613424;23;1354;-73
2024/02/19 00:15:29;;;;;;;7.55;1.67;;;;;;;;;;612961;23;1212;-73
2024/02/19 00:15:45;;;;;;;8.63;1.77;;;;;;;;;;613457;23;1239;-73
2024/02/19 00:16:01;;;;;;;7.77;1.60;;;;;;;;;;613263;23;1261;-73
2024/02/19 00:16:16;;;;;;;7.47;1.60;;;;;;;;;;613082;23;1331;-74
2024/02/19 00:16:32;;;;;;;6.77;1.60;;;;;;;;;;609886;23;1275;-73
2024/02/19 00:16:48;;;;;;;6.45;1.50;;;;;;;;;;604599;23;1242;-73
2024/02/19 00:17:03;;;;;;;6.20;1.60;;;;;;;;;;605153;23;1329;-73
2024/02/19 00:17:19;;;;;;;5.87;1.53;;;;;;;;;;601243;23;1266;-74
2024/02/19 00:17:34;;;;;;;5.60;1.60;;;;;;;;;;603268;23;1261;-74
2024/02/19 00:17:52;;;;;;;5.32;1.65;;;;;;;;;;603888;23;1213;-73
2024/02/19 00:18:08;;;;;;;5.47;1.60;;;;;;;;;;603978;23;976;-73
2024/02/19 00:18:23;;;;;;;4.85;1.45;;;;;;;;;;607001;23;1230;-73
2024/02/19 00:18:39;;;;;;;5.65;1.48;;;;;;;;;;609382;23;856;-73
2024/02/19 00:18:54;;;;;;;6.90;1.63;;;;;;;;;;609423;23;978;-73
2024/02/19 00:19:10;;;;;;;7.40;1.85;;;;;;;;;;608546;23;1177;-73
2024/02/19 00:19:26;;;;;;;8.43;1.77;;;;;;;;;;609672;23;1271;-73
2024/02/19 00:19:41;;;;;;;7.40;1.65;;;;;;;;;;611823;23;1241;-73
2024/02/19 00:19:57;;;;;;;5.77;1.60;;;;;;;;;;607705;23;772;-73
2024/02/19 00:20:12;;;;;;;5.80;1.60;;;;;;;;;;611811;23;1300;-73
2024/02/19 00:20:28;;;;;;;6.07;1.60;;;;;;;;;;611647;23;1296;-73
2024/02/19 00:20:44;;;;;;;5.83;1.67;;;;;;;;;;611392;23;769;-73
2024/02/19 00:21:00;;;;;;;6.50;1.70;;;;;;;;;;614875;23;879;-73
2024/02/19 00:21:16;;;;;;;7.32;1.80;;;;;;;;;;611750;23;1244;-73
2024/02/19 00:21:32;;;;;;;7.28;1.88;;;;;;;;;;608885;23;1252;-73
2024/02/19 00:21:48;;;;;;;5.32;1.60;;;;;;;;;;608969;23;1247;-73
2024/02/19 00:22:03;;;;;;;5.87;1.40;;;;;;;;;;605189;23;1182;-73
2024/02/19 00:22:19;;;;;;;6.53;1.45;;;;;;;;;;606035;23;1463;-73
2024/02/19 00:22:35;;;;;;;5.53;1.50;;;;;;;;;;604440;23;1136;-73
2024/02/19 00:22:51;;;;;;;7.05;1.50;;;;;;;;;;605117;23;1387;-73
2024/02/19 00:23:07;;;;;;;7.75;1.50;;;;;;;;;;604293;23;860;-73
2024/02/19 00:23:22;;;;;;;5.78;1.58;;;;;;;;;;601268;23;1294;-73
2024/02/19 00:23:38;;;;;;;5.70;1.60;;;;;;;;;;608088;23;1478;-73
2024/02/19 00:23:53;;;;;;;7.10;1.77;;;;;;;;;;606970;23;1186;-73
2024/02/19 00:24:09;;;;;;;8.10;1.67;;;;;;;;;;605950;23;1322;-73
2024/02/19 00:24:25;;;;;;;8.50;1.60;;;;;;;;;;604983;23;1304;-72
2024/02/19 00:24:41;;;;;;;7.03;1.70;;;;;;;;;;607911;23;1361;-73
2024/02/19 00:24:57;;;;;;;6.70;1.88;;;;;;;;;;610747;23;1374;-73
2024/02/19 00:25:13;;;;;;;7.78;1.88;;;;;;;;;;608389;23;1363;-73
2024/02/19 00:25:30;;;;;;;6.93;1.50;;;;;;;;;;610725;23;1081;-73
2024/02/19 00:25:45;;;;;;;5.47;1.40;;;;;;;;;;613583;23;1014;-73
2024/02/19 00:26:01;;;;;;;5.43;1.43;;;;;;;;;;614788;23;1105;-73
2024/02/19 00:26:16;;;;;;;4.97;1.50;;;;;;;;;;615424;23;1129;-73
2024/02/19 00:26:32;;;;;;;4.78;1.40;;;;;;;;;;615222;23;1183;-73
2024/02/19 00:26:48;;;;;;;5.50;1.30;;;;;;;;;;617069;23;1282;-73
2024/02/19 00:27:03;;;;;;;6.03;1.42;;;;;;;;;;610447;23;1483;-73
2024/02/19 00:27:19;;;;;;;5.45;1.60;;;;;;;;;;613039;23;1245;-72
2024/02/19 00:27:35;;;;;;;5.33;1.60;;;;;;;;;;615379;23;1195;-73
2024/02/19 00:27:50;;;;;;;5.40;1.48;;;;;;;;;;610349;23;1193;-73
2024/02/19 00:28:07;;;;;;;5.32;1.50;;;;;;;;;;605610;23;1314;-73
2024/02/19 00:28:23;;;;;;;5.65;1.50;;;;;;;;;;607568;23;1486;-73
2024/02/19 00:28:39;;;;;;;6.03;1.52;;;;;;;;;;608738;23;777;-73
2024/02/19 00:28:55;;;;;;;5.72;1.55;;;;;;;;;;604549;23;1239;-73
2024/02/19 00:29:11;;;;;;;6.00;1.73;;;;;;;;;;605050;23;1374;-73
2024/02/19 00:29:26;;;;;;;5.87;1.63;;;;;;;;;;606774;23;767;-73
2024/02/19 00:29:42;;;;;;;4.97;1.30;;;;;;;;;;608389;23;839;-73
2024/02/19 00:29:58;;;;;;;5.70;1.40;;;;;;;;;;608990;23;1292;-73
2024/02/19 00:30:14;;;;;;;6.57;1.50;;;;;;;;;;609716;23;1143;-73
2024/02/19 00:30:29;;;;;;;6.32;1.55;;;;;;;;;;609308;23;1287;-73
2024/02/19 00:30:45;;;;;;;5.20;1.38;;;;;;;;;;609897;23;1195;-73
2024/02/19 00:31:00;;;;;;;6.30;1.60;;;;;;;;;;610444;23;866;-73
2024/02/19 00:31:16;;;;;;;6.05;1.60;;;;;;;;;;608494;23;1231;-73
2024/02/19 00:31:33;;;;;;;6.03;1.40;;;;;;;;;;608513;23;974;-73
2024/02/19 00:31:48;;;;;;;6.18;1.40;;;;;;;;;;608464;23;1258;-73
2024/02/19 00:32:04;;;;;;;9.05;1.75;;;;;;;;;;613427;23;756;-73
2024/02/19 00:32:20;;;;;;;9.23;1.65;;;;;;;;;;610398;23;1268;-73
2024/02/19 00:32:35;;;;;;;6.43;1.40;;;;;;;;;;611714;23;1100;-73
2024/02/19 00:32:52;;;;;;;5.60;1.40;;;;;;;;;;609276;23;1320;-73
2024/02/19 00:33:08;;;;;;;7.68;1.50;;;;;;;;;;606188;23;1312;-73
2024/02/19 00:33:24;;;;;;;7.82;1.35;;;;;;;;;;603982;23;1898;-73
2024/02/19 00:33:40;;;;;;;5.95;1.38;;;;;;;;;;601676;23;1547;-73
2024/02/19 00:33:55;;;;;;;6.10;1.53;;;;;;;;;;603273;23;1214;-73
2024/02/19 00:34:11;;;;;;;6.68;1.50;;;;;;;;;;602755;23;796;-73
2024/02/19 00:34:27;;;;;;;8.07;1.80;;;;;;;;;;607294;23;1273;-72
2024/02/19 00:34:43;;;;;;;6.87;1.63;;;;;;;;;;606455;23;1361;-74
2024/02/19 00:34:59;;;;;;;5.05;1.40;;;;;;;;;;610087;23;910;-73
2024/02/19 00:35:14;;;;;;;4.57;1.33;;;;;;;;;;606968;23;1261;-73
2024/02/19 00:35:31;;;;;;;4.68;1.20;;;;;;;;;;611280;23;1154;-73
2024/02/19 00:35:47;;;;;;;4.75;1.25;;;;;;;;;;610293;23;1442;-73
2024/02/19 00:36:04;;;;;;;5.78;1.40;;;;;;;;;;611257;23;1450;-73
2024/02/19 00:36:20;;;;;;;5.63;1.30;;;;;;;;;;609235;23;1701;-73
2024/02/19 00:36:35;;;;;;;5.63;1.20;;;;;;;;;;611286;23;895;-73
2024/02/19 00:36:51;;;;;;;5.35;1.35;;;;;;;;;;611882;23;1227;-73
2024/02/19 00:37:07;;;;;;;4.35;1.23;;;;;;;;;;612565;23;1251;-73
2024/02/19 00:37:23;;;;;;;4.70;1.20;;;;;;;;;;612369;23;930;-73
2024/02/19 00:37:38;;;;;;;4.95;1.27;;;;;;;;;;608733;23;1339;-73
2024/02/19 00:37:54;;;;;;;4.90;1.37;;;;;;;;;;607022;23;1751;-73
2024/02/19 00:38:09;;;;;;;4.32;1.30;;;;;;;;;;604851;23;1252;-73
2024/02/19 00:38:25;;;;;;;4.47;1.37;;;;;;;;;;604670;23;883;-72
2024/02/19 00:38:41;;;;;;;5.05;1.35;;;;;;;;;;603931;23;1241;-73
2024/02/19 00:38:56;;;;;;;6.00;1.40;;;;;;;;;;602848;23;1314;-72
2024/02/19 00:39:13;;;;;;;6.75;1.63;;;;;;;;;;601685;23;1280;-73
2024/02/19 00:39:28;;;;;;;6.50;1.60;;;;;;;;;;605445;23;1249;-73
2024/02/19 00:39:44;;;;;;;5.50;1.33;;;;;;;;;;606005;23;765;-73
2024/02/19 00:40:00;;;;;;;4.65;1.30;;;;;;;;;;608472;23;1423;-73
2024/02/19 00:40:15;;;;;;;5.23;1.40;;;;;;;;;;609373;23;1100;-73
2024/02/19 00:40:31;;;;;;;5.85;1.30;;;;;;;;;;610450;23;1413;-73
2024/02/19 00:40:47;;;;;;;5.95;1.10;;;;;;;;;;610505;23;831;-73
2024/02/19 00:41:05;;;;;;;6.43;1.37;;;;;;;;;;608494;23;1288;-71
2024/02/19 00:41:21;;;;;;;5.43;1.30;;;;;;;;;;606741;23;1318;-72
2024/02/19 00:41:37;;;;;;;4.93;1.20;;;;;;;;;;605896;23;1080;-72
2024/02/19 00:41:53;;;;;;;5.93;1.38;;;;;;;;;;601870;23;999;-72
2024/02/19 00:42:10;;;;;;;5.55;1.25;;;;;;;;;;601995;23;1306;-73
2024/02/19 00:42:25;;;;;;;3.90;0.90;;;;;;;;;;607302;23;1209;-73
2024/02/19 00:42:41;;;;;;;4.80;1.07;;;;;;;;;;608538;23;1043;-72
2024/02/19 00:42:57;;;;;;;4.20;1.20;;;;;;;;;;610529;23;1245;-73
2024/02/19 00:43:12;;;;;;;3.85;1.30;;;;;;;;;;611049;23;823;-72
2024/02/19 00:43:28;;;;;;;4.37;1.20;;;;;;;;;;613236;23;823;-71
2024/02/19 00:43:45;;;;;;;4.43;1.15;;;;;;;;;;614455;23;1044;-72
2024/02/19 00:44:00;;;;;;;5.70;1.48;;;;;;;;;;611444;23;1217;-73
2024/02/19 00:44:16;;;;;;;4.77;1.33;;;;;;;;;;614266;23;843;-73
2024/02/19 00:44:32;;;;;;;4.80;1.35;;;;;;;;;;615580;23;807;-72
2024/02/19 00:44:47;;;;;;;5.22;1.38;;;;;;;;;;612378;23;1202;-72
2024/02/19 00:45:04;;;;;;;4.50;1.23;;;;;;;;;;611693;23;1254;-72
2024/02/19 00:45:20;;;;;;;5.03;1.27;;;;;;;;;;610890;23;1461;-73
2024/02/19 00:45:35;;;;;;;5.43;1.20;;;;;;;;;;608276;23;1299;-72
2024/02/19 00:45:51;;;;;;;4.47;1.07;;;;;;;;;;608075;23;816;-73
2024/02/19 00:46:07;;;;;;;4.30;1.20;;;;;;;;;;607633;23;1327;-73
2024/02/19 00:46:22;;;;;;;4.63;1.27;;;;;;;;;;608370;23;1278;-72
2024/02/19 00:46:38;;;;;;;5.03;1.30;;;;;;;;;;604844;23;1271;-72
2024/02/19 00:46:53;;;;;;;4.80;1.30;;;;;;;;;;607247;23;1334;-71
2024/02/19 00:47:09;;;;;;;3.77;1.13;;;;;;;;;;609774;23;1193;-72
2024/02/19 00:47:25;;;;;;;3.58;1.08;;;;;;;;;;607358;23;1189;-72
2024/02/19 00:47:40;;;;;;;4.20;1.17;;;;;;;;;;608925;23;1161;-73
2024/02/19 00:47:56;;;;;;;5.33;1.30;;;;;;;;;;604265;23;1182;-72
2024/02/19 00:48:12;;;;;;;5.32;1.35;;;;;;;;;;605081;23;811;-72
2024/02/19 00:48:27;;;;;;;4.57;1.30;;;;;;;;;;608819;23;1167;-73
2024/02/19 00:48:43;;;;;;;4.87;1.20;;;;;;;;;;608221;23;1099;-72
2024/02/19 00:48:58;;;;;;;5.07;1.38;;;;;;;;;;608899;23;887;-72
2024/02/19 00:49:14;;;;;;;4.40;1.57;;;;;;;;;;608573;23;843;-72
2024/02/19 00:49:30;;;;;;;4.63;1.37;;;;;;;;;;613650;23;1017;-73
2024/02/19 00:49:46;;;;;;;5.15;1.30;;;;;;;;;;612244;23;1478;-73
2024/02/19 00:50:02;;;;;;;3.92;1.15;;;;;;;;;;613930;23;1278;-73
2024/02/19 00:50:18;;;;;;;3.83;1.15;;;;;;;;;;611959;23;1214;-72
2024/02/19 00:50:33;;;;;;;5.15;1.40;;;;;;;;;;609142;23;1271;-73
2024/02/19 00:50:49;;;;;;;4.67;1.40;;;;;;;;;;606945;23;1224;-73
2024/02/19 00:51:05;;;;;;;3.35;1.20;;;;;;;;;;607010;23;1311;-73
2024/02/19 00:51:20;;;;;;;3.63;1.33;;;;;;;;;;607856;23;863;-73
2024/02/19 00:51:36;;;;;;;5.23;1.50;;;;;;;;;;610164;23;1239;-72
2024/02/19 00:51:52;;;;;;;5.70;1.40;;;;;;;;;;607351;23;982;-73
2024/02/19 00:52:08;;;;;;;5.32;1.38;;;;;;;;;;602321;23;1401;-73
2024/02/19 00:52:23;;;;;;;4.60;1.33;;;;;;;;;;600449;23;1237;-72
2024/02/19 00:52:40;;;;;;;3.97;1.10;;;;;;;;;;603930;23;769;-72
2024/02/19 00:52:56;;;;;;;5.22;1.23;;;;;;;;;;606237;23;1376;-72
2024/02/19 00:53:12;;;;;;;6.18;1.50;;;;;;;;;;607373;23;866;-73
2024/02/19 00:53:27;;;;;;;5.35;1.38;;;;;;;;;;609487;23;1951;-73
2024/02/19 00:53:43;;;;;;;4.30;1.20;;;;;;;;;;610374;23;772;-73
2024/02/19 00:53:58;;;;;;;4.45;1.10;;;;;;;;;;610934;23;855;-73
2024/02/19 00:54:14;;;;;;;4.60;1.00;;;;;;;;;;611413;23;1192;-73
2024/02/19 00:54:30;;;;;;;5.37;1.00;;;;;;;;;;612462;23;1125;-73
2024/02/19 00:54:45;;;;;;;5.65;1.13;;;;;;;;;;611724;23;1055;-72
2024/02/19 00:55:01;;;;;;;4.70;1.17;;;;;;;;;;612503;23;958;-73
2024/02/19 00:55:23;;;;;;;5.38;1.30;;;;;;;;;;613677;23;807;-73
2024/02/19 00:55:38;;;;;;;6.13;1.40;;;;;;;;;;611866;23;1362;-72
2024/02/19 00:55:54;;;;;;;5.47;1.30;;;;;;;;;;610477;23;1175;-72
2024/02/19 00:56:09;;;;;;;4.85;1.20;;;;;;;;;;607927;23;1294;-73
2024/02/19 00:56:25;;;;;;;4.88;1.27;;;;;;;;;;613383;23;1196;-73
2024/02/19 00:56:41;;;;;;;4.20;1.27;;;;;;;;;;614488;23;1062;-72
2024/02/19 00:56:56;;;;;;;3.55;1.13;;;;;;;;;;614542;23;1225;-73
2024/02/19 00:57:12;;;;;;;4.30;1.20;;;;;;;;;;614574;23;921;-73
2024/02/19 00:57:27;;;;;;;5.05;1.25;;;;;;;;;;614241;23;1242;-73
2024/02/19 00:57:43;;;;;;;4.07;1.30;;;;;;;;;;612044;23;1346;-73
2024/02/19 00:57:59;;;;;;;5.47;1.38;;;;;;;;;;606987;23;1200;-73
2024/02/19 00:58:14;;;;;;;6.25;1.30;;;;;;;;;;607369;23;1192;-73
2024/02/19 00:58:30;;;;;;;6.03;1.57;;;;;;;;;;612805;23;1292;-72
2024/02/19 00:58:45;;;;;;;6.03;1.70;;;;;;;;;;611508;23;964;-73
2024/02/19 00:59:01;;;;;;;6.53;1.50;;;;;;;;;;612168;23;891;-73
2024/02/19 00:59:16;;;;;;;5.65;1.33;;;;;;;;;;608242;23;1348;-73
2024/02/19 00:59:32;;;;;;;4.28;1.20;;;;;;;;;;610281;23;1260;-73
2024/02/19 00:59:48;;;;;;;4.20;1.20;;;;;;;;;;609166;23;804;-72
2024/02/19 01:00:08;;;;;;;3.63;1.17;;;;;;;;;;605293;23;1164;-74
2024/02/19 01:00:23;;;;;;;4.43;1.20;;;;;;;;;;607489;23;898;-73
2024/02/19 01:00:39;;;;;;;5.75;1.30;;;;;;;;;;607911;23;1210;-73
2024/02/19 01:00:55;;;;;;;5.83;1.40;;;;;;;;;;606834;23;1275;-73
2024/02/19 01:01:11;;;;;;;4.70;1.20;;;;;;;;;;608554;23;1302;-73
2024/02/19 01:01:26;;;;;;;3.88;1.13;;;;;;;;;;608622;23;1327;-73
2024/02/19 01:01:42;;;;;;;4.57;1.27;;;;;;;;;;611836;23;1082;-73
2024/02/19 01:01:58;;;;;;;4.87;1.30;;;;;;;;;;610708;23;840;-74
2024/02/19 01:02:13;;;;;;;3.65;1.17;;;;;;;;;;611784;23;1235;-73
2024/02/19 01:02:29;;;;;;;4.43;1.17;;;;;;;;;;611749;23;1028;-74
2024/02/19 01:02:45;;;;;;;5.70;1.40;;;;;;;;;;605622;23;1239;-73
2024/02/19 01:03:00;;;;;;;5.10;1.50;;;;;;;;;;608823;23;1239;-72
2024/02/19 01:03:16;;;;;;;4.72;1.30;;;;;;;;;;608663;23;903;-72
2024/02/19 01:03:32;;;;;;;3.88;1.00;;;;;;;;;;607113;23;1240;-72
2024/02/19 01:03:48;;;;;;;4.20;1.08;;;;;;;;;;604600;23;1114;-73
2024/02/19 01:04:04;;;;;;;5.97;1.20;;;;;;;;;;605148;23;839;-73
2024/02/19 01:04:19;;;;;;;5.95;1.25;;;;;;;;;;605262;23;1088;-73
2024/02/19 01:04:35;;;;;;;3.70;1.17;;;;;;;;;;609837;23;1211;-73
2024/02/19 01:04:53;;;;;;;4.32;1.20;;;;;;;;;;610656;23;1341;-73
2024/02/19 01:05:09;;;;;;;3.92;1.05;;;;;;;;;;608084;23;1386;-72
2024/02/19 01:05:25;;;;;;;3.67;1.00;;;;;;;;;;609135;23;1642;-72
2024/02/19 01:05:40;;;;;;;4.40;1.27;;;;;;;;;;609736;23;803;-72
2024/02/19 01:05:56;;;;;;;4.53;1.40;;;;;;;;;;610216;23;1250;-73
2024/02/19 01:06:12;;;;;;;4.13;1.20;;;;;;;;;;607764;23;1336;-73
2024/02/19 01:06:27;;;;;;;3.58;1.27;;;;;;;;;;606116;23;1260;-72
2024/02/19 01:06:43;;;;;;;3.92;1.27;;;;;;;;;;606636;23;808;-73
2024/02/19 01:06:59;;;;;;;4.80;1.30;;;;;;;;;;607249;23;1194;-72
2024/02/19 01:07:15;;;;;;;5.03;1.40;;;;;;;;;;607855;23;1087;-72
2024/02/19 01:07:31;;;;;;;5.00;1.30;;;;;;;;;;607476;23;1114;-72
2024/02/19 01:07:47;;;;;;;4.72;1.20;;;;;;;;;;601351;23;987;-73
2024/02/19 01:08:03;;;;;;;3.47;1.10;;;;;;;;;;603144;23;1340;-72
2024/02/19 01:08:19;;;;;;;4.20;1.23;;;;;;;;;;604292;23;1264;-72
2024/02/19 01:08:34;;;;;;;4.85;1.40;;;;;;;;;;605166;23;1331;-72
2024/02/19 01:08:50;;;;;;;3.83;1.25;;;;;;;;;;605178;23;1181;-73
2024/02/19 01:09:07;;;;;;;3.97;1.30;;;;;;;;;;607301;23;1219;-73
2024/02/19 01:09:22;;;;;;;4.57;1.30;;;;;;;;;;608266;23;911;-73
2024/02/19 01:09:38;;;;;;;4.70;1.30;;;;;;;;;;615347;23;1112;-73
2024/02/19 01:09:53;;;;;;;5.47;1.33;;;;;;;;;;609862;23;1177;-73
2024/02/19 01:10:09;;;;;;;4.55;1.25;;;;;;;;;;613311;23;1268;-73
2024/02/19 01:10:25;;;;;;;3.90;1.30;;;;;;;;;;611518;23;1211;-74
2024/02/19 01:10:41;;;;;;;4.97;1.37;;;;;;;;;;614956;23;1232;-73
2024/02/19 01:10:56;;;;;;;4.93;1.17;;;;;;;;;;610308;23;1347;-74
2024/02/19 01:11:12;;;;;;;4.35;1.10;;;;;;;;;;610538;23;1196;-73
2024/02/19 01:11:27;;;;;;;4.50;1.10;;;;;;;;;;611573;23;822;-74
2024/02/19 01:11:43;;;;;;;5.70;1.30;;;;;;;;;;614298;23;1030;-73
2024/02/19 01:11:58;;;;;;;4.97;1.37;;;;;;;;;;613960;23;980;-73
2024/02/19 01:12:14;;;;;;;4.10;1.20;;;;;;;;;;614599;23;1224;-73
2024/02/19 01:12:30;;;;;;;4.80;1.20;;;;;;;;;;616062;23;1334;-73
2024/02/19 01:12:46;;;;;;;4.60;1.03;;;;;;;;;;611580;23;1297;-73
2024/02/19 01:13:01;;;;;;;4.10;1.00;;;;;;;;;;608924;23;1325;-72
2024/02/19 01:13:17;;;;;;;5.18;1.10;;;;;;;;;;607859;23;1204;-73
2024/02/19 01:13:33;;;;;;;3.83;1.00;;;;;;;;;;606069;23;1927;-73
2024/02/19 01:13:48;;;;;;;3.60;1.00;;;;;;;;;;602839;23;847;-72
2024/02/19 01:14:04;;;;;;;4.05;0.95;;;;;;;;;;603061;23;816;-73
2024/02/19 01:14:20;;;;;;;4.32;1.10;;;;;;;;;;602530;23;1182;-73
2024/02/19 01:14:36;;;;;;;4.23;1.10;;;;;;;;;;603898;23;1414;-72
2024/02/19 01:14:52;;;;;;;5.10;1.00;;;;;;;;;;602728;23;1429;-73
2024/02/19 01:15:08;;;;;;;4.67;1.17;;;;;;;;;;607615;23;792;-73
2024/02/19 01:15:31;;;;;;;4.13;1.10;;;;;;;;;;610596;23;1204;-73
2024/02/19 01:15:47;;;;;;;4.53;1.10;;;;;;;;;;610259;23;898;-74
2024/02/19 01:16:03;;;;;;;3.72;1.05;;;;;;;;;;607224;23;1184;-73
2024/02/19 01:16:18;;;;;;;3.57;0.90;;;;;;;;;;606983;23;1058;-73
2024/02/19 01:16:34;;;;;;;4.28;1.00;;;;;;;;;;605405;23;1347;-72
2024/02/19 01:16:50;;;;;;;4.65;1.23;;;;;;;;;;605692;23;855;-73
2024/02/19 01:17:06;;;;;;;4.13;1.10;;;;;;;;;;604261;23;1173;-73
2024/02/19 01:17:22;;;;;;;4.45;1.00;;;;;;;;;;604197;23;1332;-73
2024/02/19 01:17:37;;;;;;;4.67;1.10;;;;;;;;;;605940;23;1191;-73
2024/02/19 01:17:53;;;;;;;4.20;1.10;;;;;;;;;;603238;23;1233;-73
2024/02/19 01:18:09;;;;;;;3.50;1.10;;;;;;;;;;606361;23;1190;-72
2024/02/19 01:18:24;;;;;;;3.70;1.10;;;;;;;;;;603595;23;1217;-73
2024/02/19 01:18:40;;;;;;;3.53;1.00;;;;;;;;;;604790;23;865;-73
2024/02/19 01:18:56;;;;;;;3.63;1.00;;;;;;;;;;602891;23;1279;-74
2024/02/19 01:19:11;;;;;;;3.87;1.10;;;;;;;;;;601720;23;1153;-73
2024/02/19 01:19:28;;;;;;;3.97;1.00;;;;;;;;;;609497;23;1397;-73
2024/02/19 01:19:44;;;;;;;4.35;1.05;;;;;;;;;;609934;23;969;-74
2024/02/19 01:20:00;;;;;;;3.88;1.00;;;;;;;;;;612551;23;1351;-73
2024/02/19 01:20:15;;;;;;;4.18;1.10;;;;;;;;;;611118;23;982;-73
2024/02/19 01:20:31;;;;;;;4.97;1.10;;;;;;;;;;609782;23;962;-73
2024/02/19 01:20:46;;;;;;;4.97;1.10;;;;;;;;;;607562;23;1223;-73
2024/02/19 01:21:03;;;;;;;4.40;1.00;;;;;;;;;;611480;23;1168;-73
2024/02/19 01:21:21;;;;;;;3.72;0.95;;;;;;;;;;612010;23;895;-72
2024/02/19 01:21:36;;;;;;;2.58;0.90;;;;;;;;;;613243;23;1287;-73
2024/02/19 01:21:53;;;;;;;3.20;0.90;;;;;;;;;;608247;23;1161;-72
2024/02/19 01:22:08;;;;;;;3.13;1.00;;;;;;;;;;609199;23;878;-73
2024/02/19 01:22:24;;;;;;;3.60;1.10;;;;;;;;;;608285;23;1260;-73
2024/02/19 01:22:40;;;;;;;3.67;0.93;;;;;;;;;;610742;23;1086;-73
2024/02/19 01:22:57;;;;;;;2.90;0.80;;;;;;;;;;607248;23;1107;-73
2024/02/19 01:23:13;;;;;;;2.63;0.88;;;;;;;;;;605240;23;1268;-74
2024/02/19 01:23:29;;;;;;;2.22;0.90;;;;;;;;;;608032;23;864;-73
2024/02/19 01:23:46;;;;;;;2.78;1.00;;;;;;;;;;608433;23;808;-73
2024/02/19 01:24:01;;;;;;;4.05;1.20;;;;;;;;;;609175;23;1383;-73
2024/02/19 01:24:17;;;;;;;3.50;1.10;;;;;;;;;;607014;23;1603;-73
2024/02/19 01:24:32;;;;;;;3.17;0.85;;;;;;;;;;609091;23;1288;-72
2024/02/19 01:24:48;;;;;;;3.50;0.80;;;;;;;;;;609014;23;994;-73
2024/02/19 01:25:04;;;;;;;3.20;0.90;;;;;;;;;;606798;23;1226;-73
2024/02/19 01:25:20;;;;;;;2.78;0.90;;;;;;;;;;607339;23;1154;-73
2024/02/19 01:25:35;;;;;;;2.20;0.90;;;;;;;;;;614294;23;1207;-73
2024/02/19 01:25:52;;;;;;;3.07;0.90;;;;;;;;;;610640;23;1355;-73
2024/02/19 01:26:07;;;;;;;2.97;0.95;;;;;;;;;;610552;23;847;-73
2024/02/19 01:26:23;;;;;;;2.70;0.83;;;;;;;;;;611772;23;783;-73
2024/02/19 01:26:38;;;;;;;3.13;0.80;;;;;;;;;;610495;23;1171;-73
2024/02/19 01:26:54;;;;;;;3.07;0.83;;;;;;;;;;607882;23;1283;-73
2024/02/19 01:27:10;;;;;;;3.40;0.90;;;;;;;;;;608035;23;1229;-73
2024/02/19 01:27:25;;;;;;;3.30;0.80;;;;;;;;;;609269;23;1101;-73
2024/02/19 01:27:41;;;;;;;3.23;0.90;;;;;;;;;;608324;23;1066;-73
2024/02/19 01:27:57;;;;;;;4.68;1.00;;;;;;;;;;607230;23;1164;-73
2024/02/19 01:28:13;;;;;;;4.20;0.95;;;;;;;;;;610721;23;1513;-74
2024/02/19 01:28:28;;;;;;;2.22;0.75;;;;;;;;;;614155;23;890;-72
2024/02/19 01:28:44;;;;;;;2.30;0.80;;;;;;;;;;611010;23;1275;-73
2024/02/19 01:28:59;;;;;;;2.63;0.88;;;;;;;;;;610269;23;1212;-73
2024/02/19 01:29:15;;;;;;;2.67;0.88;;;;;;;;;;607948;23;1499;-72
2024/02/19 01:29:31;;;;;;;2.10;0.80;;;;;;;;;;609563;23;1062;-73
2024/02/19 01:29:47;;;;;;;2.10;0.65;;;;;;;;;;608003;23;882;-73
2024/02/19 01:30:03;;;;;;;2.55;0.73;;;;;;;;;;604655;23;1204;-73
2024/02/19 01:30:19;;;;;;;2.60;0.80;;;;;;;;;;608127;23;1378;-73
2024/02/19 01:30:35;;;;;;;2.43;0.70;;;;;;;;;;611615;23;1248;-73
2024/02/19 01:30:50;;;;;;;2.65;0.70;;;;;;;;;;608554;23;859;-73
2024/02/19 01:31:06;;;;;;;3.20;0.70;;;;;;;;;;608287;23;1321;-73
2024/02/19 01:31:22;;;;;;;2.60;0.73;;;;;;;;;;606975;23;1225;-73
2024/02/19 01:31:38;;;;;;;2.28;0.80;;;;;;;;;;609956;23;1275;-73
2024/02/19 01:31:53;;;;;;;2.25;0.80;;;;;;;;;;608439;23;1313;-74
2024/02/19 01:32:09;;;;;;;2.10;0.60;;;;;;;;;;607703;23;819;-73
2024/02/19 01:32:26;;;;;;;2.28;0.63;;;;;;;;;;607387;23;1311;-73
2024/02/19 01:32:41;;;;;;;1.80;0.60;;;;;;;;;;605573;23;804;-73
2024/02/19 01:32:59;;;;;;;2.00;0.67;;;;;;;;;;605316;23;1229;-73
2024/02/19 01:33:15;;;;;;;2.65;0.70;;;;;;;;;;605448;23;1252;-73
2024/02/19 01:33:30;;;;;;;1.73;0.60;;;;;;;;;;606392;23;1925;-72
2024/02/19 01:33:46;;;;;;;0.80;0.50;;;;;;;;;;603776;23;1186;-72
2024/02/19 01:34:04;;;;;;;1.08;0.50;;;;;;;;;;602191;23;1265;-73
2024/02/19 01:34:20;;;;;;;1.65;0.63;;;;;;;;;;602202;23;1301;-73
2024/02/19 01:34:36;;;;;;;2.38;0.70;;;;;;;;;;602616;23;1386;-72
2024/02/19 01:34:52;;;;;;;2.67;0.70;;;;;;;;;;604841;23;1142;-73
2024/02/19 01:35:10;;;;;;;1.92;0.60;;;;;;;;;;607388;23;1353;-73
2024/02/19 01:35:26;;;;;;;1.35;0.50;;;;;;;;;;607513;23;903;-73
2024/02/19 01:35:44;;;;;;;2.58;0.80;;;;;;;;;;608309;23;1169;-73
2024/02/19 01:36:00;;;;;;;3.13;0.73;;;;;;;;;;604537;23;1257;-73
2024/02/19 01:36:15;;;;;;;2.93;0.60;;;;;;;;;;606260;23;942;-73
2024/02/19 01:36:31;;;;;;;2.75;0.60;;;;;;;;;;608197;23;1465;-73
2024/02/19 01:36:47;;;;;;;1.37;0.57;;;;;;;;;;602852;23;1399;-72
2024/02/19 01:37:04;;;;;;;1.33;0.55;;;;;;;;;;599796;23;1138;-73
2024/02/19 01:37:20;;;;;;;1.85;0.60;;;;;;;;;;601924;23;823;-73
2024/02/19 01:37:36;;;;;;;2.08;0.60;;;;;;;;;;604463;23;1353;-72
2024/02/19 01:37:52;;;;;;;2.45;0.70;;;;;;;;;;604983;23;1169;-73
2024/02/19 01:38:08;;;;;;;2.58;0.70;;;;;;;;;;604069;23;1260;-73
2024/02/19 01:38:23;;;;;;;3.15;0.75;;;;;;;;;;604239;23;1198;-72
2024/02/19 01:38:41;;;;;;;2.47;0.70;;;;;;;;;;609379;23;1185;-73
2024/02/19 01:38:56;;;;;;;1.80;0.55;;;;;;;;;;607795;23;846;-74